Archival Weather

Randolph Afb

Universal City, Texas (KRND)

Report from: Monday, September 26, 2022 1:55 AM CDT
Current time: Saturday, February 4, 2023 10:12 PM CST

Current weather
Weather history
Weather forecast

Temperature25.4°C (77.7°F)
Dew point20.8°C (69.4°F)
Winds 4 kts (2.1 m/s, 4.6 mph) Southwest (230°)
Visibility10 mi. (16.1 km)
Clouds Sky clear
Altimeter29.97 in.Hg (1015 mB)
Relative humidity76 %
Density altitude1,480 ft. (451 m)
Sea-level pressure101.4 kPa (1014 mB, 29.94 in.Hg)
Remarks Fully automated report
Automated weather observing station with precipitation discriminator
Flight conditions Visual Meteorological Conditions
Raw dataKRND 260655Z AUTO 23004KT 10SM CLR 25/21 A2997 RMK AO2 SLP139 T02540208
An unhandled exception has occurred. See browser dev tools for details. Reload 🗙